Time;durP1;ratioP1;P1;durP2;ratioP2;P2;SDS_P1;SDS_P2;PMS_P1;PMS_P2;Temp;Humidity;BMP_temperature;BMP_pressure;BME280_temperature;BME280_humidity;BME280_pressure;Samples;Min_cycle;Max_cycle;Signal;HPM_P1;HPM_P2
2023/08/17 00:14:13;;;;;;;14.35;4.40;;;;;;;-144.30;55.67;84182.00;5088014;28;20591;-54
2023/08/17 00:20:15;;;;;;;6.18;5.00;;;;;;;-144.30;56.43;84227.72;5081269;28;20206;-54
2023/08/17 00:23:00;;;;;;;5.75;4.53;;;;;;;-144.30;56.74;84241.63;5087957;28;20190;-53
2023/08/17 00:26:15;;;;;;;9.02;5.20;;;;;;;-144.30;56.95;84227.72;5090220;28;20667;-54
2023/08/17 00:32:27;;;;;;;7.20;4.93;;;;;;;-144.30;57.21;84227.72;5086854;28;20227;-46
2023/08/17 00:35:11;;;;;;;8.68;4.70;;;;;;;-144.30;57.16;84219.78;5088077;28;20238;-46
2023/08/17 00:38:19;;;;;;;12.00;5.95;;;;;;;-144.30;57.60;84239.66;5088595;28;20195;-45
2023/08/17 00:47:35;;;;;;;6.85;5.22;;;;;;;-144.30;58.97;84297.28;5086817;28;20611;-53
2023/08/17 00:50:40;;;;;;;10.18;5.28;;;;;;;-144.30;59.57;84315.16;5089023;28;20191;-53
2023/08/17 00:53:19;;;;;;;13.48;5.68;;;;;;;-144.30;59.88;84350.94;5089163;28;20264;-53
2023/08/17 00:56:08;;;;;;;7.40;5.40;;;;;;;-144.30;60.01;84339.00;5084920;28;20211;-54
2023/08/17 01:02:03;;;;;;;6.18;4.65;;;;;;;-144.30;60.51;84323.13;5082338;28;20288;-46
2023/08/17 01:05:11;;;;;;;5.20;4.78;;;;;;;-144.30;61.38;84337.03;5085458;28;20195;-53
2023/08/17 01:07:53;;;;;;;5.88;5.35;;;;;;;-144.30;61.96;84352.91;5088774;28;20594;-46
2023/08/17 01:10:56;;;;;;;6.30;5.57;;;;;;;-144.30;62.06;84374.78;5088255;28;20207;-54
2023/08/17 01:19:54;;;;;;;6.35;5.60;;;;;;;-144.30;63.55;84390.69;5087608;28;20207;-53
2023/08/17 01:23:03;;;;;;;14.35;6.70;;;;;;;-144.30;63.96;84398.63;5089231;28;20198;-54
2023/08/17 01:26:23;;;;;;;8.70;6.00;;;;;;;-144.30;64.38;84346.97;5090278;28;20230;-54
2023/08/17 01:32:47;;;;;;;7.82;6.20;;;;;;;-144.30;64.64;84458.25;5092688;28;20318;-54
2023/08/17 01:35:45;;;;;;;9.95;6.28;;;;;;;-144.30;64.28;84454.28;5093621;28;20203;-54
2023/08/17 01:38:39;;;;;;;8.23;6.28;;;;;;;-144.30;64.19;84404.59;5093602;28;20191;-54
2023/08/17 01:41:46;;;;;;;7.97;5.90;;;;;;;-144.30;64.34;84414.53;5093692;28;20704;-46
2023/08/17 01:44:37;;;;;;;9.57;5.85;;;;;;;-144.30;64.42;84442.34;5093961;28;20199;-46
2023/08/17 01:47:35;;;;;;;8.52;6.22;;;;;;;-144.30;64.95;84446.31;5093202;28;20237;-54
2023/08/17 01:53:55;;;;;;;8.50;7.07;;;;;;;-144.30;65.56;84482.09;5091818;28;20226;-54
2023/08/17 01:56:47;;;;;;;12.13;8.20;;;;;;;-144.30;66.15;84480.13;5093672;28;20195;-45
2023/08/17 01:59:43;;;;;;;10.07;7.43;;;;;;;-144.30;66.29;84517.88;5093096;28;20195;-54
2023/08/17 02:05:49;;;;;;;8.43;6.65;;;;;;;-144.30;67.09;84291.31;5092975;28;20206;-54
2023/08/17 02:11:53;;;;;;;9.23;5.70;;;;;;;-144.30;67.04;84482.09;5091405;28;20718;-54
2023/08/17 02:14:47;;;;;;;10.15;6.03;;;;;;;-144.30;67.19;84525.81;5092918;28;20721;-54
2023/08/17 02:32:31;;;;;;;6.80;6.20;;;;;;;-144.30;70.17;84573.53;5089873;28;20195;-46
2023/08/17 02:38:06;;;;;;;12.68;6.20;;;;;;;-144.30;70.67;84581.47;5086999;28;20668;-53
2023/08/17 02:41:03;;;;;;;6.85;6.30;;;;;;;-144.30;70.31;84535.75;5091219;28;20203;-54
2023/08/17 02:43:55;;;;;;;6.30;5.80;;;;;;;-144.30;70.03;84593.41;5091902;28;20679;-54
2023/08/17 02:47:05;;;;;;;10.00;6.60;;;;;;;-144.30;70.18;84595.38;5091853;28;20248;-47
2023/08/17 02:52:55;;;;;;;9.98;6.07;;;;;;;-144.30;69.88;84563.59;5089929;28;20611;-54
2023/08/17 02:55:56;;;;;;;11.23;6.05;;;;;;;-144.30;69.74;84577.50;5090905;28;20291;-50
2023/08/17 02:58:43;;;;;;;8.60;5.75;;;;;;;-144.30;69.46;84597.38;5087019;28;20191;-54
2023/08/17 03:01:35;;;;;;;8.00;5.97;;;;;;;-144.30;69.48;84621.22;5086653;28;20286;-53
2023/08/17 03:04:40;;;;;;;7.90;5.78;;;;;;;-144.30;69.31;84605.31;5091917;28;20282;-54
2023/08/17 03:07:12;;;;;;;7.90;5.85;;;;;;;-144.30;69.36;84605.31;5086548;28;20233;-54
2023/08/17 03:09:46;;;;;;;6.43;5.82;;;;;;;-144.30;69.33;84597.38;5090185;28;20203;-54
2023/08/17 03:12:26;;;;;;;7.80;6.07;;;;;;;-144.30;69.17;84639.13;5090836;28;20199;-46
2023/08/17 03:15:12;;;;;;;7.43;5.55;;;;;;;-144.30;69.34;84629.19;5088099;28;20309;-53
2023/08/17 03:18:00;;;;;;;7.10;6.13;;;;;;;-144.30;69.51;84639.13;5082499;28;20257;-45
2023/08/17 03:20:35;;;;;;;10.30;6.68;;;;;;;-144.30;69.76;84645.06;5079532;28;20207;-44
2023/08/17 03:23:12;;;;;;;11.55;6.85;;;;;;;-144.30;69.83;84637.13;5087310;28;20298;-45
2023/08/17 03:25:52;;;;;;;6.57;6.00;;;;;;;-144.30;69.65;84601.34;5071113;28;20211;-45
2023/08/17 03:28:24;;;;;;;9.15;6.70;;;;;;;-144.30;69.15;84643.09;5080868;28;20191;-54
2023/08/17 03:31:07;;;;;;;8.85;6.75;;;;;;;-144.30;68.54;84641.09;5090999;28;20248;-54
2023/08/17 03:33:57;;;;;;;11.98;6.88;;;;;;;-144.30;67.96;84657.00;5087979;28;20219;-54
2023/08/17 03:36:54;;;;;;;10.00;7.00;;;;;;;-144.30;67.44;84637.13;5090750;28;20192;-45
2023/08/17 03:39:43;;;;;;;10.10;6.70;;;;;;;-144.30;67.29;84627.19;5089658;28;20196;-53
2023/08/17 03:42:16;;;;;;;14.02;7.80;;;;;;;-144.30;67.24;84589.41;5089326;28;20668;-46
2023/08/17 03:45:06;;;;;;;6.88;5.55;;;;;;;-144.30;67.08;84631.16;5090906;28;20196;-54
2023/08/17 03:47:40;;;;;;;8.27;6.53;;;;;;;-144.30;66.78;84623.22;5090780;28;20195;-55
2023/08/17 03:50:17;;;;;;;11.25;6.65;;;;;;;-144.30;65.97;84587.44;5090794;28;20206;-45
2023/08/17 03:53:02;;;;;;;12.88;6.35;;;;;;;-144.30;65.66;84585.44;5087080;28;20230;-46
2023/08/17 03:55:57;;;;;;;8.43;6.72;;;;;;;-144.30;65.06;84500.00;5090688;28;20199;-55
2023/08/17 03:58:38;;;;;;;9.05;5.85;;;;;;;-144.30;64.09;84613.28;5090569;28;20769;-55
2023/08/17 04:01:15;;;;;;;6.55;5.95;;;;;;;-144.30;63.41;84605.31;5090714;28;20575;-54
2023/08/17 04:03:48;;;;;;;7.70;6.13;;;;;;;-144.30;62.15;84591.41;5088960;28;20198;-54
2023/08/17 04:06:27;;;;;;;9.48;7.35;;;;;;;-144.30;61.32;84555.63;5090555;28;20204;-55
2023/08/17 04:09:09;;;;;;;10.85;6.28;;;;;;;-144.30;60.41;84486.06;5079363;28;20753;-55
2023/08/17 04:11:57;;;;;;;10.02;6.22;;;;;;;-144.30;59.67;84470.19;5082034;28;20679;-54
2023/08/17 04:14:44;;;;;;;12.70;6.68;;;;;;;-144.30;58.01;84400.63;5072676;28;20219;-54
2023/08/17 04:17:27;;;;;;;8.43;6.70;;;;;;;-144.30;55.56;84187.97;5070226;28;20253;-54
2023/08/17 04:20:04;;;;;;;9.07;6.82;;;;;;;-144.30;52.06;83959.44;5070502;28;20738;-47
2023/08/17 04:22:58;;;;;;;10.65;6.00;;;;;;;-144.30;49.07;83788.56;5068612;28;20235;-47
2023/08/17 04:26:04;;;;;;;13.65;6.25;;;;;;;-144.30;45.39;83516.34;5069842;28;20199;-54
2023/08/17 04:28:48;;;;;;;13.18;7.15;;;;;;;-144.30;42.61;83250.13;5077117;28;20206;-47
2023/08/17 04:31:52;;;;;;;;;;;;;;;;;;;;;
2023/08/17 04:34:40;;;;;;;16.52;7.07;;;;;;;-144.30;40.42;83029.59;5088131;28;20242;-46
2023/08/17 04:43:59;;;;;;;13.10;7.70;;;;;;;-144.30;36.03;82354.25;5089510;28;20203;-54
2023/08/17 04:47:01;;;;;;;16.73;7.15;;;;;;;-144.30;34.74;82169.53;5087908;28;20628;-47
2023/08/17 04:49:36;;;;;;;17.40;7.10;;;;;;;-144.30;33.69;81883.53;5086480;28;20195;-46
2023/08/17 04:52:11;;;;;;;10.73;9.07;;;;;;;-144.30;32.61;81722.69;5089386;28;20199;-47
2023/08/17 04:55:02;;;;;;;8.55;6.00;;;;;;;-144.30;31.98;81613.47;5089191;28;20601;-46
2023/08/17 04:57:41;;;;;;;11.02;7.50;;;;;;;-144.30;31.78;81549.94;5086306;28;20194;-46
2023/08/17 05:00:25;;;;;;;6.10;5.57;;;;;;;-144.30;30.96;81416.88;5087955;28;20194;-46
2023/08/17 05:03:04;;;;;;;11.75;5.72;;;;;;;-144.30;30.48;81295.75;5083851;28;20226;-47
2023/08/17 05:05:45;;;;;;;13.57;6.03;;;;;;;-144.30;30.12;81299.72;5086698;28;20244;-47
2023/08/17 05:08:37;;;;;;;10.65;6.22;;;;;;;-144.30;29.53;81021.75;5086992;28;20752;-47
2023/08/17 05:11:26;;;;;;;9.68;6.30;;;;;;;-144.30;29.17;80878.81;5088138;28;20190;-47
2023/08/17 05:14:33;;;;;;;10.95;5.30;;;;;;;-144.30;28.91;80787.50;5087201;28;20215;-46
2023/08/17 05:17:19;;;;;;;8.38;5.50;;;;;;;-144.30;28.41;80575.06;5086664;28;20572;-54
2023/08/17 05:19:59;;;;;;;7.97;5.28;;;;;;;-144.30;27.98;80519.50;5085840;28;20297;-54
2023/08/17 05:22:37;;;;;;;11.20;5.65;;;;;;;-144.30;28.27;80700.16;5087829;28;20207;-55
2023/08/17 05:25:22;;;;;;;8.02;5.40;;;;;;;-144.30;28.50;80721.97;5087568;28;20593;-47
2023/08/17 05:27:59;;;;;;;13.55;5.75;;;;;;;-144.30;29.24;80968.16;5088501;28;21272;-46
2023/08/17 05:30:33;;;;;;;17.60;5.47;;;;;;;-144.30;28.85;80765.66;5087819;28;20566;-54
2023/08/17 05:33:09;;;;;;;6.40;4.85;;;;;;;-144.30;28.97;80954.25;5086822;28;20210;-47
2023/08/17 05:35:53;;;;;;;7.13;4.93;;;;;;;-144.30;28.85;80823.22;5086127;28;20201;-47
2023/08/17 05:38:36;;;;;;;9.07;5.90;;;;;;;-144.30;28.38;80640.59;5085202;28;20656;-47
2023/08/17 05:41:18;;;;;;;10.40;5.57;;;;;;;-144.30;29.32;81061.47;5087188;28;20617;-47
2023/08/17 05:44:03;;;;;;;9.07;5.60;;;;;;;-144.30;29.64;81168.69;5087340;28;20183;-47
2023/08/17 05:46:45;;;;;;;9.75;5.53;;;;;;;-144.30;29.43;80984.03;5087855;28;20199;-54
2023/08/17 05:49:39;;;;;;;13.25;5.03;;;;;;;-144.30;28.41;80612.78;5084551;28;20190;-54
2023/08/17 05:52:12;;;;;;;14.25;5.10;;;;;;;-144.30;28.70;80733.88;5087693;28;20190;-54
2023/08/17 05:54:39;;;;;;;11.98;5.38;;;;;;;-144.30;28.52;80604.84;5085919;28;20230;-54
2023/08/17 05:57:11;;;;;;;8.43;5.55;;;;;;;-144.30;27.88;80382.53;5088917;28;20198;-54
2023/08/17 05:59:41;;;;;;;9.07;5.30;;;;;;;-144.30;27.79;80330.91;5086470;28;20195;-54
2023/08/17 06:02:11;;;;;;;10.40;5.35;;;;;;;-144.30;27.59;80263.41;5088811;28;20274;-54
2023/08/17 06:04:44;;;;;;;12.70;4.97;;;;;;;-144.30;27.27;80213.78;5087827;28;20199;-54
2023/08/17 06:07:15;;;;;;;5.60;4.93;;;;;;;-144.30;27.53;80275.34;5088768;28;20187;-46
2023/08/17 06:09:49;;;;;;;15.38;5.20;;;;;;;-144.30;27.38;80213.78;5088834;28;20195;-47
2023/08/17 06:12:22;;;;;;;10.43;5.63;;;;;;;-144.30;27.84;80362.66;5090805;28;20194;-47
2023/08/17 06:14:52;;;;;;;14.07;6.63;;;;;;;-144.30;27.58;80195.94;5092400;28;20218;-47
2023/08/17 06:17:22;;;;;;;11.65;5.85;;;;;;;-144.30;27.50;80120.50;5092544;28;20257;-54
2023/08/17 06:19:56;;;;;;;6.55;5.15;;;;;;;-144.30;27.09;79953.78;5091791;28;20285;-46
2023/08/17 06:22:29;;;;;;;7.68;5.35;;;;;;;-144.30;26.84;79955.75;5092698;28;20336;-47
2023/08/17 06:25:04;;;;;;;11.45;4.72;;;;;;;-144.30;26.99;80033.16;5091881;28;20558;-46
2023/08/17 06:27:37;;;;;;;11.05;4.82;;;;;;;-144.30;26.98;80112.56;5091747;28;20328;-54
2023/08/17 06:30:12;;;;;;;13.18;5.82;;;;;;;-144.30;27.75;80396.41;5092456;28;20199;-47
2023/08/17 06:32:42;;;;;;;11.52;4.80;;;;;;;-144.30;27.87;80418.25;5092233;28;20199;-49
2023/08/17 06:35:15;;;;;;;7.80;4.78;;;;;;;-144.30;27.87;80398.41;5090864;28;20313;-54
2023/08/17 06:37:46;;;;;;;23.42;5.82;;;;;;;-144.30;28.04;80529.41;5092200;28;20199;-54
2023/08/17 06:40:17;;;;;;;6.25;4.85;;;;;;;-144.30;28.15;80493.69;5092193;28;20195;-47
2023/08/17 06:42:48;;;;;;;5.47;4.60;;;;;;;-144.30;28.10;80541.31;5092182;28;20195;-48
2023/08/17 06:45:22;;;;;;;6.55;5.07;;;;;;;-144.30;28.00;80485.75;5092162;28;20277;-55
2023/08/17 06:47:51;;;;;;;11.73;5.90;;;;;;;-144.30;27.85;80360.69;5092101;28;20198;-55
2023/08/17 06:50:27;;;;;;;5.43;4.30;;;;;;;-144.30;27.24;80239.59;5092145;28;20252;-55
2023/08/17 06:52:56;;;;;;;11.98;5.47;;;;;;;-144.30;26.82;80203.88;5091983;28;20198;-54
2023/08/17 06:55:27;;;;;;;5.47;4.93;;;;;;;-144.30;26.96;80188.00;5091783;28;20227;-54
2023/08/17 06:57:57;;;;;;;7.32;4.82;;;;;;;-144.30;27.00;80025.22;5090172;28;20226;-55
2023/08/17 07:00:24;;;;;;;7.57;5.45;;;;;;;-144.30;26.54;79967.66;5091824;28;20661;-55
2023/08/17 07:02:52;;;;;;;8.23;4.40;;;;;;;-144.30;26.68;79965.69;5091726;28;20222;-47
2023/08/17 07:05:20;;;;;;;5.38;4.40;;;;;;;-144.30;26.99;80005.38;5091614;28;20313;-47
2023/08/17 07:07:48;;;;;;;7.05;4.88;;;;;;;-144.30;27.04;80313.03;5091874;28;20217;-55
2023/08/17 07:10:19;;;;;;;5.07;4.57;;;;;;;-144.30;27.32;80348.78;5091824;28;20195;-55
2023/08/17 07:12:50;;;;;;;10.90;5.00;;;;;;;-144.30;27.21;80132.41;5091236;28;20190;-54
2023/08/17 07:15:23;;;;;;;9.48;4.80;;;;;;;-144.30;27.13;80009.34;5091389;28;20760;-46
2023/08/17 07:17:52;;;;;;;41.08;8.02;;;;;;;-144.30;26.63;79995.47;5088314;28;20667;-48
2023/08/17 07:20:27;;;;;;;25.25;6.32;;;;;;;-144.30;26.95;80058.97;5091091;28;20199;-54
2023/08/17 07:22:58;;;;;;;5.57;4.78;;;;;;;-144.30;26.44;80084.78;5090816;28;20263;-48
2023/08/17 07:25:32;;;;;;;7.40;4.45;;;;;;;-144.30;26.88;80338.84;5091277;28;20709;-48
2023/08/17 07:28:10;;;;;;;6.32;4.97;;;;;;;-144.30;26.56;80120.50;5091245;28;20692;-48
2023/08/17 07:30:44;;;;;;;10.25;4.68;;;;;;;-144.30;26.10;79959.72;5091244;28;20274;-45
2023/08/17 07:33:18;;;;;;;22.27;5.60;;;;;;;-144.30;26.37;79924.00;5090515;28;20189;-47
2023/08/17 07:35:53;;;;;;;11.25;4.47;;;;;;;-144.30;26.03;79876.38;5090932;28;20229;-55
2023/08/17 07:38:26;;;;;;;10.23;4.50;;;;;;;-144.30;25.39;79606.44;5091142;28;20209;-54
2023/08/17 07:40:58;;;;;;;8.02;4.70;;;;;;;-144.30;25.37;79515.16;5091138;28;20199;-54
2023/08/17 07:43:33;;;;;;;6.22;4.40;;;;;;;-144.30;24.86;79209.56;5091071;28;20241;-54
2023/08/17 07:46:01;;;;;;;8.57;4.50;;;;;;;-144.30;24.76;79185.75;5091007;28;20289;-54
2023/08/17 07:48:36;;;;;;;42.17;5.35;;;;;;;-144.30;24.76;79199.63;5090265;28;20233;-47
2023/08/17 07:51:13;;;;;;;6.18;3.90;;;;;;;-144.30;24.96;79140.09;5088098;28;20198;-47
2023/08/17 07:53:43;;;;;;;6.00;4.28;;;;;;;-144.30;24.96;79296.88;5088924;28;20201;-46
2023/08/17 07:56:15;;;;;;;104.18;9.38;;;;;;;-144.30;24.62;78969.47;5090223;28;20198;-46
2023/08/17 07:58:48;;;;;;;10.45;3.92;;;;;;;-144.30;24.41;79023.03;5090688;28;20205;-47
2023/08/17 08:01:19;;;;;;;20.55;4.93;;;;;;;-144.30;24.50;79094.47;5090549;28;20194;-49
2023/08/17 08:03:50;;;;;;;20.23;5.40;;;;;;;-144.30;24.48;79032.94;5090014;28;20260;-54
2023/08/17 08:06:26;;;;;;;9.88;4.60;;;;;;;-144.30;24.08;78949.63;5090618;28;20623;-57
2023/08/17 08:08:56;;;;;;;8.60;4.35;;;;;;;-144.30;24.42;79342.50;5090500;28;20202;-53
2023/08/17 08:11:25;;;;;;;7.68;4.68;;;;;;;-144.30;24.81;79473.50;5090565;28;20199;-46
2023/08/17 08:13:58;;;;;;;26.50;6.30;;;;;;;-144.30;24.35;79223.44;5089389;28;20227;-54
2023/08/17 08:16:33;;;;;;;6.35;3.70;;;;;;;-144.30;24.92;79489.38;5090561;28;20580;-46
2023/08/17 08:19:04;;;;;;;37.70;5.75;;;;;;;-144.30;24.68;79453.66;5089852;28;20197;-55
2023/08/17 08:21:39;;;;;;;5.65;3.55;;;;;;;-144.30;24.88;79743.41;5090328;28;20230;-46
2023/08/17 08:24:10;;;;;;;8.45;3.97;;;;;;;-144.30;25.17;79902.16;5090574;28;20643;-47
2023/08/17 08:26:42;;;;;;;6.43;3.10;;;;;;;-144.30;25.37;79870.41;5088608;28;20203;-47
2023/08/17 08:29:16;;;;;;;12.18;7.10;;;;;;;-144.30;24.47;79469.53;5090417;28;20722;-46
2023/08/17 08:31:47;;;;;;;8.70;4.18;;;;;;;-144.30;24.30;79110.34;5089858;28;20555;-47
2023/08/17 08:34:20;;;;;;;8.68;3.58;;;;;;;-144.30;24.06;79015.09;5090040;28;20341;-46
2023/08/17 08:36:54;;;;;;;7.95;3.88;;;;;;;-144.30;24.27;79007.16;5089663;28;20195;-45
2023/08/17 08:39:25;;;;;;;6.68;3.67;;;;;;;-144.30;24.26;79108.34;5089065;28;20194;-47
2023/08/17 08:41:54;;;;;;;6.28;3.42;;;;;;;-144.30;24.41;79423.88;5090032;28;20638;-47
2023/08/17 08:44:25;;;;;;;8.35;3.65;;;;;;;-144.30;24.76;79568.75;5089540;28;20198;-46
2023/08/17 08:47:00;;;;;;;6.78;3.17;;;;;;;-144.30;24.88;79759.28;5089801;28;20201;-47
2023/08/17 08:49:33;;;;;;;6.60;3.20;;;;;;;-144.30;25.44;80009.34;5089670;28;20267;-47
2023/08/17 08:52:08;;;;;;;17.67;4.22;;;;;;;-144.30;25.54;80144.31;5089766;28;20199;-47
2023/08/17 08:54:43;;;;;;;15.60;4.05;;;;;;;-144.30;25.73;80201.88;5088391;28;20222;-47
2023/08/17 08:57:18;;;;;;;7.53;3.60;;;;;;;-144.30;26.02;80291.22;5089785;28;20288;-45
2023/08/17 08:59:51;;;;;;;5.90;3.28;;;;;;;-144.30;26.80;80680.28;5069249;28;20191;-45
2023/08/17 09:02:23;;;;;;;8.98;3.47;;;;;;;-144.30;26.87;80616.75;5067933;28;20231;-46
2023/08/17 09:04:53;;;;;;;4.85;3.25;;;;;;;-144.30;26.55;80505.59;5069169;28;20195;-46
2023/08/17 09:07:32;;;;;;;4.40;3.50;;;;;;;-144.30;26.79;80664.41;5069278;28;20201;-46
2023/08/17 09:10:02;;;;;;;4.05;3.33;;;;;;;-144.30;27.45;80793.44;5069610;28;20584;-46
2023/08/17 09:12:58;;;;;;;5.82;3.40;;;;;;;-144.30;27.03;80698.16;5069300;28;20202;-46
2023/08/17 09:16:01;;;;;;;5.15;3.38;;;;;;;-144.30;27.02;80797.41;5066160;28;20310;-46
2023/08/17 09:19:15;;;;;;;4.75;3.45;;;;;;;-144.30;27.14;80777.56;5065896;28;20210;-46
2023/08/17 09:21:52;;;;;;;4.65;3.63;;;;;;;-144.30;27.28;80868.88;5064448;28;20202;-53
2023/08/17 09:25:13;;;;;;;3.53;3.22;;;;;;;-144.30;27.42;80912.56;5069142;28;20225;-53
2023/08/17 09:27:43;;;;;;;4.38;3.33;;;;;;;-144.30;26.88;80747.78;5068325;28;20199;-53
2023/08/17 09:30:17;;;;;;;5.55;3.20;;;;;;;-144.30;27.28;80676.31;5068947;28;20191;-54
2023/08/17 09:32:59;;;;;;;4.18;3.22;;;;;;;-144.30;26.68;80710.06;5068905;28;20238;-54
2023/08/17 09:35:57;;;;;;;10.63;3.70;;;;;;;-144.30;27.33;80823.22;5065652;28;20227;-53
2023/08/17 09:38:26;;;;;;;3.38;3.10;;;;;;;-144.30;27.52;80912.56;5070539;28;20242;-53
2023/08/17 09:40:59;;;;;;;6.97;3.40;;;;;;;-144.30;27.84;80984.03;5068869;28;20287;-45
2023/08/17 09:43:33;;;;;;;6.68;4.10;;;;;;;-144.30;27.57;80862.94;5069078;28;20207;-45
2023/08/17 09:46:04;;;;;;;8.68;4.10;;;;;;;-144.30;27.16;80819.25;5068985;28;20671;-54
2023/08/17 09:48:35;;;;;;;3.20;3.00;;;;;;;-144.30;27.01;80731.91;5073035;28;20210;-47
2023/08/17 09:51:10;;;;;;;4.40;3.40;;;;;;;-144.30;26.97;80527.44;5073003;28;20526;-46
2023/08/17 09:53:40;;;;;;;4.25;3.22;;;;;;;-144.30;26.41;80428.19;5072879;28;20190;-45
2023/08/17 09:56:15;;;;;;;5.82;3.20;;;;;;;-144.30;26.56;80513.53;5072699;28;20654;-54
2023/08/17 09:58:48;;;;;;;5.55;3.30;;;;;;;-144.30;26.12;80233.66;5072790;28;20194;-55
2023/08/17 10:01:20;;;;;;;7.35;3.78;;;;;;;-144.30;25.91;80070.88;5072629;28;20191;-54
2023/08/17 10:03:53;;;;;;;32.13;5.07;;;;;;;-144.30;25.66;79953.78;5072427;28;20348;-46
2023/08/17 10:06:26;;;;;;;16.23;4.10;;;;;;;-144.30;25.49;80049.03;5072769;28;20203;-54
2023/08/17 10:08:58;;;;;;;3.08;2.88;;;;;;;-144.30;25.45;80009.34;5072477;28;20227;-48
2023/08/17 10:11:34;;;;;;;11.05;2.70;;;;;;;-144.30;25.35;80148.28;5072647;28;20278;-45
2023/08/17 10:14:10;;;;;;;12.13;3.58;;;;;;;-144.30;25.84;80457.94;5072550;28;20195;-46
2023/08/17 10:16:48;;;;;;;6.20;3.08;;;;;;;-144.30;26.70;80843.09;5072453;28;20261;-46
2023/08/17 10:19:27;;;;;;;8.00;3.33;;;;;;;-144.30;26.41;80624.72;5072543;28;20348;-46
2023/08/17 10:22:08;;;;;;;14.38;4.22;;;;;;;-144.30;26.14;80581.03;5072214;28;20202;-47
2023/08/17 10:24:43;;;;;;;11.27;3.30;;;;;;;-144.30;26.32;80634.63;5072304;28;20195;-47
2023/08/17 10:27:14;;;;;;;8.13;3.38;;;;;;;-144.30;26.81;80872.88;5072373;28;20208;-46
2023/08/17 10:29:46;;;;;;;15.18;3.90;;;;;;;-144.30;27.35;81148.84;5072209;28;20199;-53
2023/08/17 10:32:16;;;;;;;16.27;4.00;;;;;;;-144.30;27.83;81200.47;5072279;28;20227;-54
2023/08/17 10:34:47;;;;;;;11.30;3.65;;;;;;;-144.30;27.44;81391.06;5072116;28;20227;-54
2023/08/17 10:37:24;;;;;;;5.35;3.10;;;;;;;-144.30;28.11;81547.94;5072079;28;20195;-46
2023/08/17 10:39:53;;;;;;;4.97;2.80;;;;;;;-144.30;28.62;81692.91;5071308;28;20279;-46
2023/08/17 10:42:41;;;;;;;3.85;3.25;;;;;;;-144.30;28.63;81641.28;5072020;28;20235;-46
2023/08/17 10:45:30;;;;;;;3.40;3.20;;;;;;;-144.30;28.97;81802.13;5072084;28;20289;-54
2023/08/17 10:48:35;;;;;;;3.38;3.17;;;;;;;-144.30;29.19;81839.84;5071794;28;20255;-54
2023/08/17 10:51:08;;;;;;;52.03;7.05;;;;;;;-144.30;29.29;81814.03;5069087;28;20196;-54
2023/08/17 10:53:44;;;;;;;5.32;3.25;;;;;;;-144.30;29.34;81887.53;5077855;28;20736;-54
2023/08/17 10:56:16;;;;;;;6.70;2.97;;;;;;;-144.30;29.42;81843.81;5075047;28;20220;-54
2023/08/17 10:58:53;;;;;;;5.72;3.10;;;;;;;-144.30;29.32;81911.34;5070714;28;20192;-53
2023/08/17 11:01:35;;;;;;;3.42;3.08;;;;;;;-144.30;29.73;81907.38;5071526;28;20568;-54
2023/08/17 11:04:14;;;;;;;5.18;3.80;;;;;;;-144.30;29.70;81996.75;5071712;28;20623;-54
2023/08/17 11:06:43;;;;;;;3.92;3.33;;;;;;;-144.30;29.75;81957.03;5071632;28;20196;-54
2023/08/17 11:09:11;;;;;;;3.70;3.35;;;;;;;-144.30;29.48;81996.75;5072081;28;20238;-54
2023/08/17 11:11:42;;;;;;;6.28;2.90;;;;;;;-144.30;29.63;82030.50;5071473;28;20295;-54
2023/08/17 11:14:14;;;;;;;6.95;3.20;;;;;;;-144.30;29.58;82038.44;5070849;28;20702;-53
2023/08/17 11:16:46;;;;;;;8.13;3.28;;;;;;;-144.30;30.06;82042.41;5071341;28;20223;-46
2023/08/17 11:19:15;;;;;;;10.73;3.53;;;;;;;-144.30;29.84;82008.66;5071453;28;20654;-46
2023/08/17 11:21:46;;;;;;;9.70;2.80;;;;;;;-144.30;29.21;82054.34;5070970;28;20210;-46
2023/08/17 11:24:19;;;;;;;11.25;4.20;;;;;;;-144.30;29.16;82058.31;5071407;28;20259;-46
2023/08/17 11:26:49;;;;;;;5.95;2.97;;;;;;;-144.30;29.34;82058.31;5070967;28;20227;-46
2023/08/17 11:29:23;;;;;;;7.00;3.10;;;;;;;-144.30;29.48;82020.56;5071217;28;20264;-46
2023/08/17 11:31:52;;;;;;;5.97;3.22;;;;;;;-144.30;28.99;82026.53;5070678;28;20253;-46
2023/08/17 11:34:24;;;;;;;3.50;3.20;;;;;;;-144.30;28.51;82111.94;5071095;28;20249;-54
2023/08/17 11:36:54;;;;;;;4.60;2.75;;;;;;;-144.30;28.78;82105.97;5070263;28;20686;-54
2023/08/17 11:39:28;;;;;;;4.45;2.78;;;;;;;-144.30;29.01;82046.41;5071039;28;20253;-54
2023/08/17 11:42:04;;;;;;;4.82;2.83;;;;;;;-144.30;28.73;82012.63;5070856;28;20620;-54
2023/08/17 11:44:38;;;;;;;6.10;3.30;;;;;;;-144.30;28.54;82054.34;5071261;28;20249;-46
2023/08/17 11:47:14;;;;;;;6.68;3.33;;;;;;;-144.30;29.04;82034.47;5069671;28;20217;-46
2023/08/17 11:49:48;;;;;;;6.35;3.08;;;;;;;-144.30;28.29;81976.88;5070611;28;20192;-55
2023/08/17 11:52:18;;;;;;;10.48;3.45;;;;;;;-144.30;28.34;81976.88;5070846;28;20709;-54
2023/08/17 11:54:50;;;;;;;7.57;3.53;;;;;;;-144.30;28.54;81931.22;5070187;28;20196;-46
2023/08/17 11:57:20;;;;;;;6.05;3.22;;;;;;;-144.30;28.88;81951.06;5070918;28;20196;-46
2023/08/17 11:59:56;;;;;;;3.78;2.97;;;;;;;-144.30;28.00;81962.97;5069935;28;20261;-45
2023/08/17 12:02:28;;;;;;;6.20;3.50;;;;;;;-144.30;28.04;81970.94;5069961;28;20231;-46
2023/08/17 12:05:00;;;;;;;4.57;2.97;;;;;;;-144.30;27.96;81964.97;5070287;28;20199;-54
2023/08/17 12:07:35;;;;;;;3.70;3.00;;;;;;;-144.30;28.09;81955.03;5070213;28;20204;-46
2023/08/17 12:10:06;;;;;;;4.43;2.80;;;;;;;-144.30;27.83;81953.06;5070039;28;20199;-54
2023/08/17 12:12:43;;;;;;;8.07;3.72;;;;;;;-144.30;27.77;81992.78;5070079;28;20261;-54
2023/08/17 12:15:37;;;;;;;4.70;3.33;;;;;;;-144.30;27.71;81961.00;5070242;28;20216;-54
2023/08/17 12:18:10;;;;;;;7.18;3.10;;;;;;;-144.30;27.75;82002.69;5068186;28;20192;-45
2023/08/17 12:20:39;;;;;;;7.00;3.63;;;;;;;-144.30;27.24;81943.13;5070094;28;20239;-53
2023/08/17 12:23:11;;;;;;;3.67;2.70;;;;;;;-144.30;27.16;81935.19;5084041;28;20608;-54
2023/08/17 12:25:40;;;;;;;4.95;3.08;;;;;;;-144.30;27.24;81901.41;5090136;28;20708;-53
2023/08/17 12:28:19;;;;;;;10.23;3.75;;;;;;;-144.30;26.58;81933.19;5090094;28;20668;-54
2023/08/17 12:31:03;;;;;;;3.30;3.03;;;;;;;-144.30;27.07;81972.91;5090379;28;20286;-46
2023/08/17 12:33:32;;;;;;;3.67;3.00;;;;;;;-144.30;27.24;81982.84;5090239;28;20218;-46
2023/08/17 12:36:02;;;;;;;3.60;3.15;;;;;;;-144.30;27.54;81982.84;5090134;28;20215;-46
2023/08/17 12:38:36;;;;;;;5.55;3.30;;;;;;;-144.30;27.69;81978.88;5090068;28;20195;-53
2023/08/17 12:41:14;;;;;;;4.18;2.90;;;;;;;-144.30;27.55;81966.94;5089766;28;20190;-54
2023/08/17 12:43:48;;;;;;;7.60;3.25;;;;;;;-144.30;27.43;81994.75;5089910;28;20198;-55
2023/08/17 12:46:18;;;;;;;8.45;3.25;;;;;;;-144.30;27.59;82008.66;5090209;28;20631;-54
2023/08/17 12:48:49;;;;;;;5.93;3.17;;;;;;;-144.30;27.78;82004.69;5089159;28;20195;-47
2023/08/17 12:51:22;;;;;;;3.72;2.60;;;;;;;-144.30;27.52;81935.19;5089955;28;20204;-45
2023/08/17 12:53:52;;;;;;;3.85;3.00;;;;;;;-144.30;27.64;81970.94;5089838;28;20199;-46
2023/08/17 12:56:22;;;;;;;8.98;3.80;;;;;;;-144.30;27.62;81943.13;5089650;28;20219;-46
2023/08/17 12:58:51;;;;;;;8.35;3.63;;;;;;;-144.30;27.64;81939.16;5089559;28;20217;-46
2023/08/17 13:01:23;;;;;;;10.52;3.65;;;;;;;-144.30;27.47;81939.16;5089447;28;20199;-47
2023/08/17 13:03:54;;;;;;;15.27;3.80;;;;;;;-144.30;27.35;81945.09;5088269;28;20199;-54
2023/08/17 13:06:25;;;;;;;3.42;3.13;;;;;;;-144.30;27.53;81972.91;5089568;28;20245;-54
2023/08/17 13:08:52;;;;;;;5.45;3.15;;;;;;;-144.30;27.64;81955.03;5085168;28;20191;-54
2023/08/17 13:11:23;;;;;;;2.90;2.70;;;;;;;-144.30;27.68;81966.94;5088520;28;20210;-45
2023/08/17 13:13:52;;;;;;;9.57;3.80;;;;;;;-144.30;27.80;82008.66;5089185;28;20706;-53
2023/08/17 13:16:23;;;;;;;3.25;2.92;;;;;;;-144.30;27.91;81994.75;5089089;28;20616;-52
2023/08/17 13:18:54;;;;;;;5.32;2.92;;;;;;;-144.30;27.88;81992.78;5088938;28;21253;-46
2023/08/17 13:21:23;;;;;;;4.65;2.70;;;;;;;-144.30;28.34;81994.75;5088480;28;20204;-45
2023/08/17 13:23:52;;;;;;;3.05;2.85;;;;;;;-144.30;28.33;82010.66;5088824;28;20213;-46
2023/08/17 13:26:25;;;;;;;4.50;2.90;;;;;;;-144.30;28.46;82014.63;5088936;28;20199;-47